Time;durP1;ratioP1;P1;durP2;ratioP2;P2;SDS_P1;SDS_P2;PMS_P1;PMS_P2;Temp;Humidity;BMP_temperature;BMP_pressure;BME280_temperature;BME280_humidity;BME280_pressure;Samples;Min_cycle;Max_cycle;Signal;HPM_P1;HPM_P2
2022/01/30 00:01:20;;;;;;;4.15;1.10;;;6.90;85.40;;;;;;6309671;22;20068;-78
2022/01/30 00:03:45;;;;;;;5.75;1.33;;;7.00;85.30;;;;;;6338145;22;20030;-78
2022/01/30 00:06:11;;;;;;;7.13;1.33;;;7.00;85.10;;;;;;6284038;22;20011;-78
2022/01/30 00:08:37;;;;;;;5.22;1.38;;;7.00;85.10;;;;;;6283423;22;20059;-78
2022/01/30 00:11:11;;;;;;;7.10;1.58;;;6.90;84.90;;;;;;6310235;22;20014;-77
2022/01/30 00:13:37;;;;;;;6.78;1.70;;;6.90;85.00;;;;;;6311964;22;20035;-78
2022/01/30 00:16:06;;;;;;;5.57;1.38;;;6.90;84.90;;;;;;6284025;22;20002;-78
2022/01/30 00:21:29;;;;;;;2.40;0.90;;;6.90;84.90;;;;;;6312808;22;20014;-78
2022/01/30 00:24:03;;;;;;;5.32;1.30;;;6.90;84.90;;;;;;6313693;22;20018;-79
2022/01/30 00:26:32;;;;;;;4.88;1.00;;;6.90;85.00;;;;;;6312098;22;20041;-78
2022/01/30 00:29:01;;;;;;;4.82;1.13;;;6.80;84.90;;;;;;6307576;22;20015;-77
2022/01/30 00:31:27;;;;;;;5.30;1.05;;;6.80;84.90;;;;;;6286652;22;20015;-77
2022/01/30 00:33:54;;;;;;;5.30;0.93;;;6.80;85.00;;;;;;6308843;22;20022;-78
2022/01/30 00:36:20;;;;;;;3.75;0.93;;;6.80;84.90;;;;;;6338529;22;20003;-78
2022/01/30 00:38:47;;;;;;;6.43;1.35;;;6.80;85.00;;;;;;6285048;22;20060;-78
2022/01/30 00:41:13;;;;;;;6.95;1.90;;;6.70;84.80;;;;;;6281096;22;20077;-78
2022/01/30 00:43:39;;;;;;;4.35;1.50;;;6.80;84.80;;;;;;6309559;22;20014;-78
2022/01/30 00:46:04;;;;;;;6.05;1.55;;;6.80;84.80;;;;;;6281900;22;20011;-79
2022/01/30 00:48:30;;;;;;;3.75;1.33;;;6.80;84.80;;;;;;6284413;22;20457;-79
2022/01/30 00:50:56;;;;;;;9.15;1.83;;;6.80;84.60;;;;;;6309700;22;20371;-78
2022/01/30 00:53:22;;;;;;;6.60;1.77;;;6.90;84.50;;;;;;6311551;22;20007;-78
2022/01/30 00:55:47;;;;;;;6.07;1.58;;;6.90;84.30;;;;;;6287235;22;20003;-79
2022/01/30 00:58:13;;;;;;;7.20;1.65;;;6.90;84.10;;;;;;6289615;22;20330;-78
2022/01/30 01:00:40;;;;;;;5.13;1.38;;;6.90;84.10;;;;;;6312050;22;20003;-78
2022/01/30 01:03:06;;;;;;;9.07;2.03;;;6.90;84.70;;;;;;6313588;22;20043;-79
2022/01/30 01:05:34;;;;;;;6.55;1.58;;;6.90;84.10;;;;;;6349942;22;20023;-78
2022/01/30 01:08:08;;;;;;;8.18;1.50;;;6.90;83.90;;;;;;6315353;22;20006;-79
2022/01/30 01:10:42;;;;;;;5.07;1.77;;;6.90;83.90;;;;;;6309979;22;20076;-78
2022/01/30 01:13:18;;;;;;;4.78;1.50;;;6.90;84.00;;;;;;6312780;22;20007;-78
2022/01/30 01:23:49;;;;;;;6.20;1.60;;;6.70;84.20;;;;;;6338598;22;20342;-78
2022/01/30 01:26:16;;;;;;;5.43;1.27;;;6.80;84.10;;;;;;6285687;22;20465;-79
2022/01/30 01:28:46;;;;;;;4.97;1.20;;;6.80;84.10;;;;;;6310748;22;20025;-77
2022/01/30 01:31:12;;;;;;;6.10;1.20;;;6.80;84.00;;;;;;6283803;22;20606;-79
2022/01/30 01:34:11;;;;;;;7.55;1.40;;;6.90;83.80;;;;;;6282807;22;20056;-79
2022/01/30 01:36:28;;;;;;;8.27;1.48;;;6.90;83.70;;;;;;6318278;22;20023;-78
2022/01/30 01:38:56;;;;;;;6.10;1.17;;;7.00;83.70;;;;;;6282128;22;20076;-78
2022/01/30 01:41:24;;;;;;;7.40;1.52;;;7.00;83.40;;;;;;6301189;22;20007;-78
2022/01/30 01:43:51;;;;;;;5.85;1.52;;;7.10;83.40;;;;;;6331172;22;20006;-78
2022/01/30 01:46:23;;;;;;;3.67;0.95;;;7.00;83.30;;;;;;6309458;22;20003;-78
2022/01/30 01:48:51;;;;;;;5.80;1.50;;;7.00;83.30;;;;;;6306445;22;20003;-78
2022/01/30 01:51:23;;;;;;;7.10;1.30;;;6.90;83.40;;;;;;6309804;22;20069;-78
2022/01/30 01:53:51;;;;;;;5.47;1.23;;;6.90;83.50;;;;;;6283176;22;20085;-78
2022/01/30 01:56:18;;;;;;;2.08;1.00;;;6.90;83.70;;;;;;6309753;22;20077;-78
2022/01/30 01:58:45;;;;;;;6.20;1.52;;;6.70;83.70;;;;;;6309062;22;20387;-78
2022/01/30 02:01:11;;;;;;;3.78;1.23;;;6.70;83.90;;;;;;6283452;22;20433;-78
2022/01/30 02:03:39;;;;;;;4.20;0.90;;;6.60;84.00;;;;;;6337648;22;20334;-78
2022/01/30 02:06:07;;;;;;;3.90;0.95;;;6.60;84.30;;;;;;6309275;22;20017;-78
2022/01/30 02:08:37;;;;;;;5.20;0.90;;;6.50;84.40;;;;;;6310322;22;20457;-78
2022/01/30 02:11:08;;;;;;;3.08;0.70;;;6.50;84.50;;;;;;6310557;22;20014;-78
2022/01/30 02:13:55;;;;;;;3.80;1.08;;;6.50;84.60;;;;;;6310415;22;20438;-79
2022/01/30 02:24:53;;;;;;;3.35;0.93;;;6.60;84.50;;;;;;6313531;22;20042;-79
2022/01/30 02:27:22;;;;;;;3.67;1.00;;;6.60;84.30;;;;;;6311806;22;20015;-78
2022/01/30 02:29:48;;;;;;;6.20;1.38;;;6.70;84.30;;;;;;6309878;22;20018;-78
2022/01/30 02:32:15;;;;;;;3.05;0.95;;;6.60;84.20;;;;;;6336364;22;20007;-78
2022/01/30 02:34:41;;;;;;;3.63;1.00;;;6.70;84.20;;;;;;6337324;22;20327;-78
2022/01/30 02:37:07;;;;;;;4.65;1.10;;;6.60;84.00;;;;;;6279880;22;20007;-78
2022/01/30 02:39:33;;;;;;;6.07;1.30;;;6.70;83.90;;;;;;6281882;22;19999;-78
2022/01/30 02:41:59;;;;;;;6.15;1.10;;;6.80;83.90;;;;;;6309889;22;20081;-78
2022/01/30 02:44:33;;;;;;;3.60;0.90;;;6.70;83.80;;;;;;6306402;22;20008;-78
2022/01/30 02:47:07;;;;;;;2.92;0.90;;;6.70;83.90;;;;;;6336763;22;20002;-78
2022/01/30 02:49:56;;;;;;;2.28;0.90;;;6.60;84.10;;;;;;6308954;22;20007;-78
2022/01/30 02:52:19;;;;;;;4.28;1.10;;;6.50;84.30;;;;;;6313196;22;20090;-77
2022/01/30 02:54:45;;;;;;;3.53;0.95;;;6.40;84.60;;;;;;6308824;22;20046;-78
2022/01/30 02:57:11;;;;;;;1.45;0.68;;;6.40;84.70;;;;;;6309120;22;20434;-78
2022/01/30 02:59:37;;;;;;;3.35;1.23;;;6.30;84.80;;;;;;6307734;22;20043;-77
2022/01/30 03:02:03;;;;;;;4.70;1.20;;;6.30;85.00;;;;;;6308756;22;20007;-78
2022/01/30 03:04:28;;;;;;;4.00;1.00;;;6.30;85.10;;;;;;6308959;22;20017;-78
2022/01/30 03:06:54;;;;;;;4.47;1.13;;;6.30;85.10;;;;;;6282657;22;20094;-77
2022/01/30 03:09:20;;;;;;;3.00;0.88;;;6.20;85.00;;;;;;6308443;22;20011;-78
2022/01/30 03:11:46;;;;;;;2.20;0.98;;;6.20;85.10;;;;;;6308613;22;20385;-77
2022/01/30 03:14:12;;;;;;;3.17;0.73;;;6.20;85.10;;;;;;6308141;22;20330;-78
2022/01/30 03:16:38;;;;;;;5.30;1.23;;;6.20;85.00;;;;;;6308753;22;20890;-78
2022/01/30 03:19:04;;;;;;;3.25;1.00;;;6.20;85.00;;;;;;6308684;22;20426;-78
2022/01/30 03:21:29;;;;;;;4.18;0.85;;;6.20;85.00;;;;;;6274610;22;20404;-77
2022/01/30 03:23:55;;;;;;;3.88;0.90;;;6.20;85.00;;;;;;6281934;22;20335;-78
2022/01/30 03:26:21;;;;;;;4.10;1.13;;;6.20;85.00;;;;;;6309520;22;20360;-77
2022/01/30 03:28:48;;;;;;;2.72;0.80;;;6.20;85.00;;;;;;6306702;22;20003;-77
2022/01/30 03:31:16;;;;;;;3.92;0.80;;;6.20;84.90;;;;;;6337061;22;20013;-77
2022/01/30 03:33:42;;;;;;;2.70;0.90;;;6.10;84.90;;;;;;6309489;22;20011;-77
2022/01/30 03:36:07;;;;;;;2.53;0.70;;;6.00;85.00;;;;;;6283547;22;20013;-78
2022/01/30 03:38:33;;;;;;;2.25;0.60;;;6.10;85.20;;;;;;6336641;22;20010;-78
2022/01/30 03:40:59;;;;;;;3.47;0.68;;;6.00;85.20;;;;;;6337108;22;20132;-77
2022/01/30 03:43:25;;;;;;;1.73;0.68;;;6.00;85.20;;;;;;6278974;22;20019;-78
2022/01/30 03:45:51;;;;;;;4.47;1.08;;;6.00;85.20;;;;;;6305406;22;20015;-78
2022/01/30 03:48:17;;;;;;;2.22;0.70;;;6.00;85.40;;;;;;6339071;22;20003;-77
2022/01/30 03:50:44;;;;;;;1.15;0.52;;;5.90;85.30;;;;;;6307348;22;20014;-78
2022/01/30 03:53:11;;;;;;;2.33;0.70;;;5.90;85.40;;;;;;6338412;22;20379;-77
2022/01/30 03:55:38;;;;;;;1.58;0.52;;;5.80;85.40;;;;;;6338702;22;20025;-77
2022/01/30 03:58:05;;;;;;;0.90;0.40;;;5.80;85.50;;;;;;6285226;22;20426;-78
2022/01/30 04:00:31;;;;;;;0.65;0.35;;;5.90;85.50;;;;;;6310510;22;20015;-78
2022/01/30 04:02:57;;;;;;;1.73;0.43;;;5.70;85.50;;;;;;6284763;22;20082;-78
2022/01/30 04:05:23;;;;;;;2.55;0.70;;;5.70;85.60;;;;;;6305796;22;20027;-78
2022/01/30 04:07:49;;;;;;;1.20;0.30;;;5.70;85.60;;;;;;6302448;22;20015;-77
2022/01/30 04:10:15;;;;;;;2.35;0.50;;;5.60;85.60;;;;;;6306717;22;20484;-77
2022/01/30 04:12:42;;;;;;;0.90;0.40;;;5.60;85.80;;;;;;6311150;22;20011;-78
2022/01/30 04:15:09;;;;;;;0.50;0.30;;;5.50;86.00;;;;;;6303139;22;20477;-78
2022/01/30 04:17:35;;;;;;;2.63;0.38;;;5.50;86.10;;;;;;6276363;22;20107;-78
2022/01/30 04:20:02;;;;;;;1.73;0.52;;;5.40;86.10;;;;;;6296689;22;20030;-77
2022/01/30 04:22:27;;;;;;;1.70;0.38;;;5.40;86.20;;;;;;6306303;22;20007;-78
2022/01/30 04:24:53;;;;;;;1.02;0.47;;;5.40;86.20;;;;;;6299315;22;20381;-77
2022/01/30 04:27:20;;;;;;;1.35;0.50;;;5.50;86.10;;;;;;6307227;22;20011;-77
2022/01/30 04:29:47;;;;;;;2.92;0.70;;;5.40;86.00;;;;;;6278529;22;20041;-78
2022/01/30 04:32:14;;;;;;;1.65;0.43;;;5.50;86.10;;;;;;6338944;22;20003;-77
2022/01/30 04:34:42;;;;;;;1.55;0.43;;;5.40;85.90;;;;;;6338984;22;20014;-77
2022/01/30 04:37:19;;;;;;;2.28;0.60;;;5.40;85.90;;;;;;6305658;22;20427;-77
2022/01/30 04:40:17;;;;;;;2.65;0.70;;;5.50;85.90;;;;;;6306896;22;20022;-77
2022/01/30 04:53:35;;;;;;;3.50;0.70;;;5.60;85.40;;;;;;6310086;22;20084;-77
2022/01/30 04:56:49;;;;;;;3.65;0.75;;;5.60;85.10;;;;;;6310853;22;20011;-77
2022/01/30 04:58:55;;;;;;;3.47;0.85;;;5.70;85.10;;;;;;6343790;22;20011;-77
2022/01/30 05:01:40;;;;;;;2.25;0.55;;;5.70;84.90;;;;;;6277215;22;20043;-77
2022/01/30 05:09:28;;;;;;;3.40;0.93;;;5.70;84.80;;;;;;6312114;22;20015;-77
2022/01/30 05:11:54;;;;;;;3.08;0.70;;;5.70;84.70;;;;;;6299137;22;20339;-77
2022/01/30 05:14:24;;;;;;;5.15;0.98;;;5.80;84.60;;;;;;6310730;22;20029;-77
2022/01/30 05:16:50;;;;;;;4.15;1.13;;;5.80;84.50;;;;;;6342716;22;20006;-78
2022/01/30 05:19:16;;;;;;;4.65;0.85;;;5.70;84.50;;;;;;6273262;22;20090;-77
2022/01/30 05:21:42;;;;;;;4.65;0.90;;;5.70;84.50;;;;;;6298910;22;20014;-77
2022/01/30 05:24:09;;;;;;;5.90;1.13;;;5.70;84.60;;;;;;6342315;22;20029;-77
2022/01/30 05:26:40;;;;;;;4.97;1.08;;;5.70;84.80;;;;;;6309656;22;20018;-77
2022/01/30 05:29:06;;;;;;;2.15;0.50;;;5.80;84.80;;;;;;6302722;22;20454;-78
2022/01/30 05:31:32;;;;;;;3.28;0.70;;;5.80;84.70;;;;;;6308271;22;20014;-77
2022/01/30 05:33:58;;;;;;;3.92;0.85;;;5.80;84.60;;;;;;6306726;22;20447;-77
2022/01/30 05:36:24;;;;;;;3.45;0.63;;;5.90;84.50;;;;;;6308601;22;20013;-77
2022/01/30 05:38:52;;;;;;;1.65;0.65;;;5.80;84.40;;;;;;6313567;22;20011;-77
2022/01/30 05:41:18;;;;;;;3.78;1.00;;;5.90;84.40;;;;;;6305918;22;20037;-77
2022/01/30 05:43:47;;;;;;;2.05;0.65;;;5.80;84.30;;;;;;6305044;22;20011;-77
2022/01/30 05:46:18;;;;;;;2.70;0.57;;;5.80;84.30;;;;;;6335782;22;20010;-77
2022/01/30 05:48:44;;;;;;;3.47;0.77;;;5.70;85.10;;;;;;6279664;22;20011;-77
2022/01/30 05:51:10;;;;;;;2.70;0.95;;;5.70;84.60;;;;;;6305285;22;20027;-77
2022/01/30 05:53:36;;;;;;;1.55;0.30;;;5.60;84.80;;;;;;6278151;22;20308;-78
2022/01/30 05:56:01;;;;;;;5.57;0.77;;;5.50;84.80;;;;;;6311586;22;20011;-77
2022/01/30 05:58:27;;;;;;;2.05;0.77;;;5.50;85.00;;;;;;6342873;22;20002;-78
2022/01/30 06:00:53;;;;;;;2.08;0.60;;;5.60;85.10;;;;;;6289080;22;20003;-78
2022/01/30 06:03:19;;;;;;;3.03;0.80;;;5.50;85.00;;;;;;6287038;22;20334;-78
2022/01/30 06:05:46;;;;;;;2.60;0.90;;;5.60;85.00;;;;;;6313312;22;20007;-77
2022/01/30 06:08:17;;;;;;;1.60;0.63;;;5.60;85.00;;;;;;6311729;22;20418;-78
2022/01/30 06:10:42;;;;;;;4.65;0.73;;;5.60;85.00;;;;;;6315840;22;20009;-77
2022/01/30 06:13:08;;;;;;;5.13;0.82;;;5.60;85.00;;;;;;6317350;22;20027;-78
2022/01/30 06:15:34;;;;;;;6.85;1.08;;;5.60;85.00;;;;;;6293350;22;20049;-77
2022/01/30 06:18:00;;;;;;;4.40;0.93;;;5.70;85.00;;;;;;6343402;22;20030;-78
2022/01/30 06:20:25;;;;;;;4.18;1.00;;;5.70;84.80;;;;;;6341423;22;21116;-77
2022/01/30 06:22:51;;;;;;;5.03;1.08;;;5.70;84.60;;;;;;6308186;22;20462;-78
2022/01/30 06:25:17;;;;;;;2.85;0.90;;;5.90;84.60;;;;;;6284733;22;20007;-78
2022/01/30 06:27:43;;;;;;;6.05;1.40;;;5.80;84.50;;;;;;6341750;22;20022;-78
2022/01/30 06:30:09;;;;;;;4.28;1.17;;;5.80;84.50;;;;;;6310318;22;20098;-78
2022/01/30 06:32:35;;;;;;;4.05;1.00;;;5.80;84.50;;;;;;6310765;22;20396;-78
2022/01/30 06:35:02;;;;;;;6.30;1.40;;;5.80;84.60;;;;;;6310566;22;20014;-78
2022/01/30 06:37:27;;;;;;;2.15;0.75;;;5.70;84.60;;;;;;6312737;22;20031;-78
2022/01/30 06:39:53;;;;;;;3.47;1.02;;;5.70;84.70;;;;;;6321834;22;20033;-78
2022/01/30 06:42:19;;;;;;;6.07;1.02;;;5.70;84.70;;;;;;6321120;22;20003;-78
2022/01/30 06:44:45;;;;;;;2.78;0.90;;;5.70;84.80;;;;;;6340777;22;20093;-80
2022/01/30 06:47:12;;;;;;;2.53;0.80;;;5.80;84.80;;;;;;6318268;22;20014;-79
2022/01/30 06:49:38;;;;;;;1.85;0.60;;;5.70;84.90;;;;;;6337520;22;20033;-79
2022/01/30 06:52:06;;;;;;;5.38;0.95;;;5.60;84.90;;;;;;6312428;22;20097;-77
2022/01/30 06:54:32;;;;;;;4.15;0.93;;;5.60;85.00;;;;;;6284133;22;20438;-79
2022/01/30 06:56:57;;;;;;;3.83;0.88;;;5.50;85.20;;;;;;6287685;22;20048;-77
2022/01/30 06:59:23;;;;;;;4.60;0.93;;;5.40;85.30;;;;;;6338588;22;19999;-78
2022/01/30 07:01:51;;;;;;;2.53;0.77;;;5.40;85.50;;;;;;6280298;22;19996;-78
2022/01/30 07:04:17;;;;;;;4.63;0.80;;;5.40;85.60;;;;;;6308219;22;20015;-79
2022/01/30 07:06:42;;;;;;;1.50;0.50;;;5.30;85.80;;;;;;6287935;22;20007;-78
2022/01/30 07:09:08;;;;;;;1.73;0.52;;;5.30;86.00;;;;;;6338513;22;20007;-77
2022/01/30 07:11:34;;;;;;;2.78;0.80;;;5.30;86.00;;;;;;6319032;22;20351;-79
2022/01/30 07:14:00;;;;;;;3.75;0.82;;;5.30;86.00;;;;;;6346177;22;20014;-78
2022/01/30 07:16:25;;;;;;;2.53;1.13;;;5.30;86.00;;;;;;6291057;22;20093;-78
2022/01/30 07:18:51;;;;;;;3.40;0.98;;;5.40;85.90;;;;;;6282942;22;20007;-78
2022/01/30 07:21:17;;;;;;;2.63;0.73;;;5.40;85.70;;;;;;6309578;22;20025;-76
2022/01/30 07:23:43;;;;;;;1.05;0.75;;;5.40;86.30;;;;;;6278518;22;20010;-78
2022/01/30 07:26:09;;;;;;;3.58;0.93;;;5.40;85.60;;;;;;6284041;22;20002;-78
2022/01/30 07:28:34;;;;;;;3.85;0.80;;;5.50;85.60;;;;;;6309774;22;20014;-78
2022/01/30 07:31:00;;;;;;;3.47;0.80;;;5.50;85.60;;;;;;6309940;22;20010;-78
2022/01/30 07:33:26;;;;;;;2.58;0.65;;;5.50;85.40;;;;;;6307893;22;20015;-78
2022/01/30 07:35:53;;;;;;;2.70;0.80;;;5.40;85.30;;;;;;6284083;22;20003;-78
2022/01/30 07:38:21;;;;;;;4.85;0.95;;;5.40;85.40;;;;;;6310872;22;20089;-77
2022/01/30 07:40:47;;;;;;;3.63;0.98;;;5.30;85.50;;;;;;6310321;22;20003;-78
2022/01/30 07:43:12;;;;;;;2.95;0.90;;;5.30;85.70;;;;;;6284174;22;20500;-78
2022/01/30 07:45:38;;;;;;;4.90;1.17;;;5.30;85.80;;;;;;6310392;22;20006;-78
2022/01/30 07:48:04;;;;;;;2.10;0.70;;;5.20;85.90;;;;;;6310469;22;20881;-78
2022/01/30 07:50:30;;;;;;;4.80;0.75;;;5.20;86.00;;;;;;6281896;22;20000;-78
2022/01/30 07:52:56;;;;;;;2.58;0.73;;;5.20;86.10;;;;;;6285099;22;20003;-78
2022/01/30 07:55:21;;;;;;;4.05;0.90;;;5.20;86.20;;;;;;6310597;22;20029;-78
2022/01/30 07:57:47;;;;;;;2.03;0.75;;;5.20;86.10;;;;;;6310073;22;20089;-77
2022/01/30 08:00:14;;;;;;;2.55;0.80;;;5.30;86.00;;;;;;6310567;22;20052;-78
2022/01/30 08:02:40;;;;;;;3.75;0.80;;;5.30;85.90;;;;;;6283914;22;20346;-78
2022/01/30 08:05:06;;;;;;;2.72;0.93;;;5.30;85.80;;;;;;6309849;22;20011;-78
2022/01/30 08:07:32;;;;;;;4.45;0.93;;;5.30;85.80;;;;;;6349485;22;20014;-78
2022/01/30 08:09:59;;;;;;;2.50;0.88;;;5.30;85.70;;;;;;6304633;22;20011;-76
2022/01/30 08:12:24;;;;;;;3.53;0.73;;;5.40;85.70;;;;;;6308013;22;20014;-75
2022/01/30 08:14:50;;;;;;;4.00;0.80;;;5.40;85.70;;;;;;6361467;22;20015;-76
2022/01/30 08:17:21;;;;;;;1.52;0.70;;;5.40;85.70;;;;;;6308208;22;20439;-76
2022/01/30 08:19:48;;;;;;;3.17;0.88;;;5.40;85.70;;;;;;6333280;22;20110;-76
2022/01/30 08:22:14;;;;;;;3.72;0.80;;;5.40;85.70;;;;;;6331705;22;20029;-76
2022/01/30 08:24:40;;;;;;;2.85;0.65;;;5.50;85.70;;;;;;6361800;22;20019;-76
2022/01/30 08:27:06;;;;;;;2.10;0.63;;;5.40;85.70;;;;;;6335948;22;20366;-76
2022/01/30 08:29:32;;;;;;;2.25;0.60;;;5.50;85.80;;;;;;6332242;22;20079;-76
2022/01/30 08:31:59;;;;;;;1.33;0.47;;;5.50;85.80;;;;;;6324829;22;19990;-76
2022/01/30 08:34:25;;;;;;;2.15;0.52;;;5.50;85.70;;;;;;6337822;22;19999;-77
2022/01/30 08:36:51;;;;;;;2.42;0.65;;;5.40;85.70;;;;;;6310787;22;20006;-76
2022/01/30 08:39:18;;;;;;;1.58;0.73;;;5.40;85.70;;;;;;6361633;22;19999;-77
2022/01/30 08:41:44;;;;;;;0.60;0.32;;;5.40;85.80;;;;;;6323938;22;20063;-76
2022/01/30 08:44:10;;;;;;;0.93;0.40;;;5.40;86.00;;;;;;6321269;22;20019;-75
2022/01/30 08:46:35;;;;;;;4.55;0.95;;;5.40;86.00;;;;;;6357495;22;19995;-76
2022/01/30 08:49:01;;;;;;;1.65;0.47;;;5.50;86.10;;;;;;6305686;22;19995;-76
2022/01/30 08:51:27;;;;;;;1.60;0.40;;;5.50;86.00;;;;;;6324779;22;20046;-75
2022/01/30 08:53:53;;;;;;;1.83;0.57;;;5.40;85.90;;;;;;6314578;22;20078;-76
2022/01/30 08:56:21;;;;;;;2.92;0.70;;;5.50;85.90;;;;;;6317941;22;20007;-75
2022/01/30 08:58:48;;;;;;;1.27;0.40;;;5.50;85.90;;;;;;6324009;22;20089;-75
2022/01/30 09:01:14;;;;;;;1.60;0.47;;;5.40;85.70;;;;;;6354951;22;19987;-75
2022/01/30 09:03:43;;;;;;;3.80;0.60;;;5.50;85.80;;;;;;6353270;22;20011;-76
2022/01/30 09:06:10;;;;;;;3.28;0.90;;;5.60;85.80;;;;;;6317997;22;20038;-75
2022/01/30 09:08:35;;;;;;;2.88;0.47;;;5.70;85.80;;;;;;6311205;22;20006;-76
2022/01/30 09:11:02;;;;;;;2.63;0.63;;;5.70;85.60;;;;;;6336918;22;20093;-77
2022/01/30 09:13:28;;;;;;;2.60;0.52;;;5.90;85.50;;;;;;6336594;22;20123;-75
2022/01/30 09:15:57;;;;;;;2.60;0.70;;;5.90;85.20;;;;;;6309289;22;20478;-76
2022/01/30 09:18:25;;;;;;;2.03;0.82;;;6.10;85.20;;;;;;6336994;22;20011;-77
2022/01/30 09:20:51;;;;;;;4.45;1.05;;;6.10;85.10;;;;;;6310074;22;20367;-76
2022/01/30 09:23:17;;;;;;;2.75;0.85;;;6.10;84.90;;;;;;6309005;22;20036;-75
2022/01/30 09:25:43;;;;;;;1.65;0.57;;;6.20;84.80;;;;;;6337278;22;20006;-75
2022/01/30 09:28:09;;;;;;;2.78;0.88;;;6.20;84.70;;;;;;6336779;22;20007;-75
2022/01/30 09:30:34;;;;;;;3.92;1.05;;;6.30;84.80;;;;;;6337157;22;20007;-75
2022/01/30 09:33:00;;;;;;;1.88;0.73;;;6.20;84.60;;;;;;6336640;22;20009;-75
2022/01/30 09:35:26;;;;;;;2.65;1.02;;;6.30;84.60;;;;;;6308732;22;20015;-75
2022/01/30 09:37:52;;;;;;;4.70;0.95;;;6.30;84.60;;;;;;6309908;22;20418;-74
2022/01/30 09:40:18;;;;;;;4.95;0.95;;;6.30;84.60;;;;;;6309756;22;20010;-74
2022/01/30 09:42:45;;;;;;;3.00;0.90;;;6.30;84.60;;;;;;6336034;22;20462;-75
2022/01/30 09:45:13;;;;;;;3.42;0.70;;;6.20;84.70;;;;;;6336729;22;20006;-74
2022/01/30 09:47:40;;;;;;;3.78;0.70;;;6.20;84.90;;;;;;6336585;22;20442;-75
2022/01/30 09:50:08;;;;;;;5.85;1.08;;;6.20;85.00;;;;;;6337219;22;20422;-75
2022/01/30 09:52:33;;;;;;;4.75;1.20;;;6.30;85.00;;;;;;6336697;22;20015;-77
2022/01/30 09:54:59;;;;;;;3.75;0.95;;;6.50;85.00;;;;;;6309060;22;20094;-78
2022/01/30 09:57:25;;;;;;;3.25;0.82;;;6.60;84.70;;;;;;6337421;22;20013;-76
2022/01/30 09:59:51;;;;;;;3.05;1.02;;;6.70;84.40;;;;;;6283419;22;20326;-77
2022/01/30 10:02:18;;;;;;;4.28;1.30;;;6.80;84.10;;;;;;6309257;22;20074;-75
2022/01/30 10:04:44;;;;;;;4.60;1.10;;;6.80;84.00;;;;;;6336574;22;20006;-74
2022/01/30 10:07:13;;;;;;;2.97;1.10;;;6.90;84.00;;;;;;6309288;22;20097;-74
2022/01/30 10:09:49;;;;;;;6.32;1.15;;;6.90;84.00;;;;;;6336712;22;20434;-75
2022/01/30 10:12:19;;;;;;;3.53;1.15;;;6.90;84.00;;;;;;6311195;22;20010;-76
2022/01/30 10:15:06;;;;;;;3.80;0.85;;;7.10;84.00;;;;;;6309012;22;20442;-76
2022/01/30 10:17:47;;;;;;;3.85;1.17;;;7.10;83.80;;;;;;6314212;22;20055;-75
2022/01/30 10:20:15;;;;;;;3.15;1.10;;;7.20;83.70;;;;;;6308938;22;20003;-74
2022/01/30 10:22:57;;;;;;;4.03;1.15;;;7.20;83.60;;;;;;6337153;22;19995;-75
2022/01/30 10:25:26;;;;;;;3.38;1.00;;;7.30;83.50;;;;;;6336303;22;20085;-74
2022/01/30 10:28:20;;;;;;;2.78;1.00;;;7.30;83.30;;;;;;6282794;22;20315;-75
2022/01/30 10:30:50;;;;;;;4.53;0.88;;;7.40;83.30;;;;;;6336364;22;20078;-74
2022/01/30 10:33:20;;;;;;;2.78;0.80;;;7.40;83.30;;;;;;6336803;22;20006;-75
2022/01/30 10:35:53;;;;;;;3.58;0.90;;;7.40;83.30;;;;;;6336885;22;20011;-75
2022/01/30 10:38:23;;;;;;;3.95;0.90;;;7.40;83.20;;;;;;6308748;22;20339;-74
2022/01/30 10:41:11;;;;;;;4.32;1.00;;;7.50;83.40;;;;;;6336772;22;20041;-74
2022/01/30 10:43:56;;;;;;;6.78;1.40;;;7.50;83.10;;;;;;6336570;22;20038;-74
2022/01/30 10:46:40;;;;;;;6.72;1.35;;;7.50;82.90;;;;;;6336243;22;21013;-75
2022/01/30 10:49:10;;;;;;;5.60;1.00;;;7.50;82.90;;;;;;6336318;22;20090;-74
2022/01/30 10:51:36;;;;;;;6.55;1.40;;;7.50;82.80;;;;;;6308495;22;20334;-74
2022/01/30 10:54:12;;;;;;;5.68;1.50;;;7.50;82.80;;;;;;6336845;22;20010;-74
2022/01/30 10:56:39;;;;;;;5.05;1.33;;;7.50;82.70;;;;;;6337541;22;20010;-74
2022/01/30 10:59:11;;;;;;;7.13;1.60;;;7.50;82.70;;;;;;6283824;22;20422;-75
2022/01/30 11:01:41;;;;;;;5.03;1.70;;;7.60;82.70;;;;;;6338015;22;20090;-75
2022/01/30 11:04:19;;;;;;;4.55;1.42;;;7.60;82.60;;;;;;6283800;22;20003;-75
2022/01/30 11:06:47;;;;;;;5.22;1.48;;;7.70;82.50;;;;;;6337916;22;20006;-77
2022/01/30 11:09:19;;;;;;;8.88;2.05;;;7.80;82.40;;;;;;6309921;22;20068;-76
2022/01/30 11:11:51;;;;;;;5.55;1.50;;;7.80;82.20;;;;;;6285145;22;20446;-76
2022/01/30 11:14:20;;;;;;;4.30;1.35;;;7.90;82.00;;;;;;6337462;22;20007;-75
2022/01/30 11:16:57;;;;;;;4.97;1.30;;;7.80;81.80;;;;;;6337803;22;20052;-75
2022/01/30 11:19:25;;;;;;;6.40;1.60;;;7.80;81.80;;;;;;6335008;22;20438;-75
2022/01/30 11:21:55;;;;;;;7.28;1.95;;;7.90;81.70;;;;;;6309774;22;20030;-76
2022/01/30 11:24:24;;;;;;;6.60;1.60;;;7.90;81.70;;;;;;6309670;22;20015;-76
2022/01/30 11:26:50;;;;;;;6.38;1.27;;;8.00;81.50;;;;;;6337351;22;20338;-75
2022/01/30 11:29:21;;;;;;;4.95;1.30;;;8.00;81.20;;;;;;6310309;22;20073;-75
2022/01/30 11:31:49;;;;;;;8.25;1.45;;;8.10;81.20;;;;;;6337539;22;20010;-75
2022/01/30 11:34:14;;;;;;;7.40;1.60;;;8.20;81.00;;;;;;6309550;22;20015;-75
2022/01/30 11:36:43;;;;;;;4.70;1.20;;;8.30;80.80;;;;;;6337313;22;20042;-75
2022/01/30 11:39:15;;;;;;;8.30;2.00;;;8.40;80.50;;;;;;6308337;22;20003;-75
2022/01/30 11:41:41;;;;;;;6.50;1.50;;;8.40;80.30;;;;;;6337532;22;20013;-75
2022/01/30 11:44:23;;;;;;;9.63;2.03;;;8.40;80.10;;;;;;6309875;22;20042;-78
2022/01/30 11:47:17;;;;;;;7.22;1.80;;;8.50;79.90;;;;;;6309846;22;20010;-77
2022/01/30 11:50:04;;;;;;;6.47;1.40;;;8.50;80.50;;;;;;6316514;22;20015;-77
2022/01/30 11:52:47;;;;;;;4.75;1.25;;;8.50;79.70;;;;;;6337656;22;20013;-77
2022/01/30 11:55:54;;;;;;;8.85;1.60;;;8.50;79.80;;;;;;6337556;22;20038;-78
2022/01/30 11:58:35;;;;;;;5.05;1.30;;;8.50;79.70;;;;;;6289519;22;20048;-77
2022/01/30 12:01:34;;;;;;;4.90;1.17;;;8.50;79.80;;;;;;6337378;22;20085;-78
2022/01/30 12:04:06;;;;;;;4.55;1.20;;;8.60;79.70;;;;;;6337517;22;20019;-77
2022/01/30 12:06:35;;;;;;;3.38;1.17;;;8.60;79.60;;;;;;6337373;22;20026;-77
2022/01/30 12:09:04;;;;;;;4.22;1.38;;;8.60;79.60;;;;;;6304574;22;20086;-78
2022/01/30 12:11:50;;;;;;;4.15;1.48;;;8.50;79.50;;;;;;6308136;22;20007;-77
2022/01/30 12:14:51;;;;;;;4.10;1.10;;;8.60;79.50;;;;;;6309424;22;20512;-77
2022/01/30 12:17:44;;;;;;;5.53;1.52;;;8.60;79.50;;;;;;6316725;22;20089;-76
2022/01/30 12:20:10;;;;;;;5.53;1.58;;;8.70;79.40;;;;;;6337778;22;20078;-78
2022/01/30 12:22:38;;;;;;;4.80;1.30;;;8.80;79.20;;;;;;6309525;22;20023;-77
2022/01/30 12:25:22;;;;;;;7.68;1.38;;;8.80;79.40;;;;;;6337339;22;20010;-78
2022/01/30 12:27:53;;;;;;;7.03;1.50;;;8.90;78.50;;;;;;6337526;22;20017;-77
2022/01/30 12:30:36;;;;;;;7.47;1.38;;;8.80;78.30;;;;;;6309289;22;20011;-75
2022/01/30 12:33:30;;;;;;;5.70;1.48;;;8.70;78.40;;;;;;6337409;22;20015;-75
2022/01/30 12:35:56;;;;;;;5.22;1.27;;;8.70;78.70;;;;;;6337141;22;20010;-76
2022/01/30 12:38:32;;;;;;;7.18;1.63;;;8.70;78.40;;;;;;6283568;22;20093;-75
2022/01/30 12:40:58;;;;;;;5.97;1.52;;;8.60;78.30;;;;;;6337895;22;20007;-75
2022/01/30 12:43:27;;;;;;;4.32;1.30;;;8.60;79.00;;;;;;6278568;22;20094;-75
2022/01/30 12:46:05;;;;;;;4.95;1.40;;;8.50;78.50;;;;;;6309950;22;20010;-75
2022/01/30 12:48:30;;;;;;;6.57;1.55;;;8.50;78.60;;;;;;6309755;22;20316;-77
2022/01/30 12:51:02;;;;;;;5.80;1.50;;;8.70;78.60;;;;;;6304356;22;20114;-77
2022/01/30 12:53:28;;;;;;;;;;;8.80;78.30;;;;;;6335224;22;20007;-77
2022/01/30 12:55:54;;;;;;;4.30;1.20;;;8.90;77.90;;;;;;6310189;22;19910;-76
2022/01/30 12:58:20;;;;;;;5.03;1.17;;;8.90;77.60;;;;;;6337721;22;20023;-76
2022/01/30 13:01:03;;;;;;;6.68;1.67;;;9.00;77.50;;;;;;6337580;22;20026;-76
2022/01/30 13:03:29;;;;;;;4.00;1.20;;;8.90;77.50;;;;;;6310071;22;20090;-74
2022/01/30 13:05:55;;;;;;;3.35;1.10;;;8.90;77.40;;;;;;6309457;22;20050;-76
2022/01/30 13:08:20;;;;;;;9.88;1.50;;;9.00;77.50;;;;;;6337539;22;20019;-74
2022/01/30 13:10:46;;;;;;;6.85;1.25;;;9.00;77.40;;;;;;6309343;22;20011;-75
2022/01/30 13:13:12;;;;;;;4.97;1.30;;;9.10;77.40;;;;;;6283508;22;20014;-76
2022/01/30 13:15:39;;;;;;;5.65;1.45;;;9.10;77.00;;;;;;6308764;22;20442;-78
2022/01/30 13:18:05;;;;;;;6.97;1.50;;;9.00;77.40;;;;;;6308577;22;20090;-76
2022/01/30 13:20:31;;;;;;;6.45;1.48;;;9.00;76.70;;;;;;6309238;22;20037;-76
2022/01/30 13:22:57;;;;;;;4.35;1.20;;;9.10;77.00;;;;;;6337133;22;20034;-76
2022/01/30 13:25:23;;;;;;;6.45;1.55;;;9.20;76.80;;;;;;6308822;22;20027;-77
2022/01/30 13:27:52;;;;;;;10.73;1.80;;;9.30;76.50;;;;;;6308580;22;20023;-75
2022/01/30 13:30:22;;;;;;;5.53;1.63;;;9.20;76.20;;;;;;6309157;22;20014;-76
2022/01/30 13:32:49;;;;;;;3.28;1.25;;;9.40;76.00;;;;;;6337024;22;20006;-76
2022/01/30 13:35:18;;;;;;;5.63;1.30;;;9.30;75.70;;;;;;6336947;22;20010;-77
2022/01/30 13:37:46;;;;;;;4.88;1.30;;;9.20;75.70;;;;;;6309416;22;20019;-77
2022/01/30 13:40:20;;;;;;;3.90;1.23;;;9.20;75.90;;;;;;6336801;22;20007;-77
2022/01/30 13:42:52;;;;;;;6.40;1.50;;;9.20;76.00;;;;;;6337611;22;20342;-76